aviador You're here:

KTGI Decoded Metar

in
Report Time2018-01-23 04:02:00
UTC Time2018-01-23 04:05:07
Flight Rules vfr VFR
Wind160° at 10 kt
W.Decomp.*RWY 20: 7.7 kt HW 6.4 kt LCW
W.Rank160° ranks 10
Current wind is above 160° avg. (8.2)
Visibility9999 m
Phenomena:N/A
Clouds:Scattered 075 Hf
Expected CloudBase > 400 ft AGL from Temp-Dew spread
CeilingNone
Temp07°C
Dew Point06°C (93% RH)
AAT2.5°C
QNH1017 hPa
Raw Report
METAR KTGI 230402Z AUTO 16010KT 10SM SCT075 07/06 A3002 RMK AO1=

Extra information for KTGI:More info

Social comments